Destinations Košice Airport

Košice Airport (LZKZ / KSC)

Flights to Košice Airport

Flight number From ETE Dispatch
SPY-2468 EGPH Edinburgh Airport 03:05

Flights from Košice Airport

Flight number To ETE Dispatch
SPY-2469 EGPH Edinburgh Airport 03:05
About

Košice Airport facts

Košice Airport is located in Kosice at an elevation of 230.1 meters or 755 feet.

Currently, Speedy Airlines serves 2 flights to and from Košice Airport.

Detailed airport info

Route map

Weather

Current weather

METAR

METAR

Metar data retrieved Sunday, 21 July 2024 at 18:55 UTC

LZKZ 211830Z 29004KT 240V320 9999 FEW045 23/21 Q1009 NOSIG
Wind Temperature
4 kt 23c